Time;durP1;ratioP1;P1;durP2;ratioP2;P2;SDS_P1;SDS_P2;PMS_P1;PMS_P2;Temp;Humidity;BMP_temperature;BMP_pressure;BME280_temperature;BME280_humidity;BME280_pressure;Samples;Min_cycle;Max_cycle;Signal;HPM_P1;HPM_P2
2023/10/06 00:01:07;;;;;;;7.25;6.53;;;;;;;14.97;100.00;63542.34;5071437;28;20239;-76
2023/10/06 00:03:35;;;;;;;7.85;6.55;;;;;;;14.92;100.00;63545.38;5069191;28;20228;-77
2023/10/06 00:06:04;;;;;;;9.30;6.40;;;;;;;14.91;100.00;63539.22;5069566;28;20221;-77
2023/10/06 00:08:33;;;;;;;9.13;6.40;;;;;;;14.90;100.00;63537.66;5082556;28;20216;-76
2023/10/06 00:11:11;;;;;;;6.78;6.07;;;;;;;14.86;100.00;63536.56;5082121;28;20224;-76
2023/10/06 00:13:39;;;;;;;8.43;6.45;;;;;;;14.82;100.00;63534.47;5087968;28;20196;-76
2023/10/06 00:16:07;;;;;;;7.63;6.38;;;;;;;14.83;100.00;63527.81;5076214;28;20209;-77
2023/10/06 00:18:36;;;;;;;7.00;5.00;;;;;;;14.76;100.00;63528.22;5078494;28;20200;-76
2023/10/06 00:21:14;;;;;;;11.73;7.00;;;;;;;14.82;100.00;63534.97;5081999;28;20529;-77
2023/10/06 00:23:43;;;;;;;7.97;5.85;;;;;;;14.80;100.00;63530.34;5084177;28;20207;-76
2023/10/06 00:26:16;;;;;;;8.27;6.80;;;;;;;14.77;100.00;63524.16;5085201;28;20244;-77
2023/10/06 00:28:45;;;;;;;7.30;6.15;;;;;;;14.76;100.00;63520.53;5067942;28;20232;-78
2023/10/06 00:31:13;;;;;;;9.32;5.90;;;;;;;14.72;100.00;63516.41;5072073;28;20225;-75
2023/10/06 00:33:42;;;;;;;8.15;6.18;;;;;;;14.73;100.00;63525.66;5070595;28;20197;-77
2023/10/06 00:36:13;;;;;;;11.10;6.65;;;;;;;14.70;100.00;63519.44;5077508;28;20463;-76
2023/10/06 00:38:42;;;;;;;8.73;6.07;;;;;;;14.62;100.00;63509.09;5066259;28;20204;-76
2023/10/06 00:41:14;;;;;;;7.07;6.07;;;;;;;14.57;100.00;63503.38;5067009;28;20284;-77
2023/10/06 00:43:43;;;;;;;9.95;6.22;;;;;;;14.51;100.00;63497.16;5068912;28;20204;-76
2023/10/06 00:46:12;;;;;;;10.68;6.63;;;;;;;14.47;100.00;63493.50;5069963;28;20232;-77
2023/10/06 00:48:41;;;;;;;9.20;6.80;;;;;;;14.46;100.00;63491.94;5069265;28;20263;-75
2023/10/06 00:51:12;;;;;;;12.82;6.63;;;;;;;14.40;100.00;63486.25;5084111;28;20422;-77
2023/10/06 00:53:40;;;;;;;9.55;6.75;;;;;;;14.35;100.00;63477.97;5083836;28;20207;-77
2023/10/06 00:56:10;;;;;;;7.15;6.10;;;;;;;14.35;100.00;63481.03;5085162;28;20220;-76
2023/10/06 00:58:41;;;;;;;9.40;6.75;;;;;;;14.36;100.00;63481.56;5089139;28;20192;-75
2023/10/06 01:01:08;;;;;;;8.95;6.70;;;;;;;14.41;100.00;63489.31;5074900;28;20483;-77
2023/10/06 01:03:39;;;;;;;14.57;6.65;;;;;;;14.42;100.00;63485.22;5072287;28;20260;-77
2023/10/06 01:06:14;;;;;;;8.68;6.55;;;;;;;14.43;100.00;63489.34;5066663;28;20537;-77
2023/10/06 01:08:45;;;;;;;7.68;5.75;;;;;;;14.42;100.00;63485.75;5066676;28;20197;-79
2023/10/06 01:11:13;;;;;;;13.80;6.30;;;;;;;14.40;100.00;63483.69;5068632;28;20216;-77
2023/10/06 01:13:55;;;;;;;10.73;6.85;;;;;;;14.39;100.00;63482.63;5082136;28;20200;-78
2023/10/06 01:16:30;;;;;;;10.45;5.90;;;;;;;14.34;100.00;63482.06;5071203;28;20224;-78
2023/10/06 01:19:14;;;;;;;8.70;5.82;;;;;;;14.34;100.00;63485.13;5068093;28;20543;-76
2023/10/06 01:21:45;;;;;;;8.68;6.03;;;;;;;14.32;100.00;63477.41;5083871;28;20216;-77
2023/10/06 01:24:15;;;;;;;8.10;5.53;;;;;;;14.41;100.00;63489.81;5087496;28;20201;-76
2023/10/06 01:26:42;;;;;;;8.55;6.43;;;;;;;14.42;100.00;63490.88;5082444;28;20204;-76
2023/10/06 01:29:13;;;;;;;9.75;6.45;;;;;;;14.42;100.00;63488.31;5085657;28;20563;-78
2023/10/06 01:31:41;;;;;;;9.30;6.07;;;;;;;14.46;100.00;63494.50;5072381;28;20482;-78
2023/10/06 01:34:11;;;;;;;8.07;6.22;;;;;;;14.48;100.00;63499.66;5068467;28;20193;-77
2023/10/06 01:36:39;;;;;;;9.32;6.68;;;;;;;14.53;100.00;63504.84;5083405;28;20553;-77
2023/10/06 01:39:16;;;;;;;8.85;6.05;;;;;;;14.57;100.00;63503.38;5084434;28;20281;-76
2023/10/06 01:41:48;;;;;;;8.95;5.68;;;;;;;14.52;100.00;63501.25;5066173;28;20189;-76
2023/10/06 01:44:17;;;;;;;6.90;6.20;;;;;;;14.56;100.00;63497.22;5078033;28;20213;-77
2023/10/06 01:46:53;;;;;;;9.13;6.63;;;;;;;14.63;100.00;63515.25;5086012;28;20548;-75
2023/10/06 01:49:21;;;;;;;9.48;5.97;;;;;;;14.69;100.00;63518.91;5076892;28;20528;-77
2023/10/06 01:51:50;;;;;;;10.52;6.28;;;;;;;14.72;100.00;63519.47;5072296;28;20205;-77
2023/10/06 01:54:19;;;;;;;6.63;6.03;;;;;;;14.78;100.00;63528.28;5066353;28;20228;-77
2023/10/06 01:56:47;;;;;;;8.63;6.88;;;;;;;14.83;100.00;63530.91;5086474;28;20197;-77
2023/10/06 01:59:16;;;;;;;7.97;6.30;;;;;;;14.97;100.00;63542.34;5081940;28;20304;-76
2023/10/06 02:01:44;;;;;;;8.27;6.72;;;;;;;15.04;100.00;63550.16;5074728;28;20215;-78
2023/10/06 02:04:14;;;;;;;7.60;6.55;;;;;;;15.04;100.00;63557.34;5067046;28;20193;-77
2023/10/06 02:06:44;;;;;;;9.07;6.63;;;;;;;15.09;100.00;63554.84;5066472;28;20201;-76
2023/10/06 02:09:15;;;;;;;8.75;6.70;;;;;;;15.00;100.00;63545.47;5066207;28;20258;-77
2023/10/06 02:11:43;;;;;;;7.95;6.82;;;;;;;14.98;100.00;63546.47;5072416;28;20192;-76
2023/10/06 02:14:17;;;;;;;9.20;6.93;;;;;;;14.93;100.00;63538.72;5066290;28;20208;-77
2023/10/06 02:16:44;;;;;;;11.52;7.47;;;;;;;14.95;100.00;63540.81;5065239;28;20230;-77
2023/10/06 02:19:15;;;;;;;9.85;6.50;;;;;;;14.95;100.00;63540.28;5065133;28;20211;-77
2023/10/06 02:21:44;;;;;;;9.35;8.00;;;;;;;14.97;100.00;63545.44;5065739;28;20443;-76
2023/10/06 02:24:16;;;;;;;8.50;7.03;;;;;;;15.02;100.00;63553.22;5065600;28;20276;-77
2023/10/06 02:26:48;;;;;;;7.13;6.47;;;;;;;15.03;100.00;63551.69;5086572;28;20196;-76
2023/10/06 02:29:21;;;;;;;6.90;6.03;;;;;;;15.06;100.00;63554.28;5074386;28;20443;-76
2023/10/06 02:31:49;;;;;;;9.25;7.10;;;;;;;15.05;100.00;63553.22;5075505;28;20193;-76
2023/10/06 02:34:29;;;;;;;8.13;6.00;;;;;;;15.03;100.00;63549.13;5063904;28;20244;-77
2023/10/06 02:36:56;;;;;;;9.38;6.78;;;;;;;15.00;100.00;63545.47;5066469;28;20214;-75
2023/10/06 02:39:26;;;;;;;13.45;7.35;;;;;;;15.00;100.00;63553.16;5073500;28;20219;-76
2023/10/06 02:41:57;;;;;;;11.10;7.20;;;;;;;14.96;100.00;63544.41;5087121;28;20206;-77
2023/10/06 02:44:26;;;;;;;10.45;6.90;;;;;;;15.01;100.00;63552.16;5069503;28;20252;-77
2023/10/06 02:46:53;;;;;;;7.60;6.80;;;;;;;14.76;100.00;63528.75;5069664;28;20263;-77
2023/10/06 02:49:31;;;;;;;9.30;7.40;;;;;;;14.80;100.00;63527.78;5069637;28;20225;-76
2023/10/06 02:52:00;;;;;;;8.05;6.90;;;;;;;14.84;100.00;63534.50;5068140;28;20365;-78
2023/10/06 02:54:29;;;;;;;8.43;6.72;;;;;;;14.81;100.00;63525.72;5069353;28;20224;-78
2023/10/06 02:56:57;;;;;;;8.80;7.10;;;;;;;14.84;100.00;63528.88;5073760;28;20213;-77
2023/10/06 02:59:26;;;;;;;10.63;7.85;;;;;;;14.86;100.00;63528.38;5068942;28;20247;-77
2023/10/06 03:01:56;;;;;;;11.65;7.68;;;;;;;14.87;100.00;63534.53;5067801;28;20524;-76
2023/10/06 03:04:26;;;;;;;11.63;6.82;;;;;;;14.95;100.00;63542.84;5071478;28;20280;-77
2023/10/06 03:06:55;;;;;;;9.00;6.72;;;;;;;15.00;100.00;63548.56;5068514;28;20439;-77
2023/10/06 03:09:29;;;;;;;9.18;8.15;;;;;;;15.03;100.00;63549.13;5067626;28;20221;-75
2023/10/06 03:11:59;;;;;;;11.45;7.80;;;;;;;15.07;100.00;63555.31;5088756;28;20376;-77
2023/10/06 03:14:38;;;;;;;7.53;6.70;;;;;;;15.10;100.00;63555.34;5090476;28;20219;-77
2023/10/06 03:17:09;;;;;;;9.60;6.93;;;;;;;15.14;100.00;63562.06;5072479;28;20209;-77
2023/10/06 03:19:40;;;;;;;7.80;7.00;;;;;;;15.18;100.00;63564.19;5071519;28;20239;-76
2023/10/06 03:22:09;;;;;;;8.13;6.18;;;;;;;15.21;100.00;63566.78;5081988;28;20340;-76
2023/10/06 03:24:45;;;;;;;7.38;6.70;;;;;;;15.19;100.00;63565.22;5070255;28;20221;-76
2023/10/06 03:27:14;;;;;;;9.43;6.55;;;;;;;15.24;100.00;63567.34;5074894;28;20196;-76
2023/10/06 03:29:53;;;;;;;9.82;6.65;;;;;;;15.25;100.00;63576.06;5077019;28;20294;-76
2023/10/06 03:32:32;;;;;;;9.68;6.65;;;;;;;15.27;100.00;63570.44;5070167;28;20217;-77
2023/10/06 03:35:08;;;;;;;10.00;6.85;;;;;;;15.28;100.00;63574.06;5068309;28;20224;-75
2023/10/06 03:37:45;;;;;;;8.30;7.13;;;;;;;15.28;100.00;63576.63;5071740;28;20205;-77
2023/10/06 03:40:21;;;;;;;7.53;6.15;;;;;;;15.31;100.00;63574.59;5086265;28;20220;-76
2023/10/06 03:42:49;;;;;;;13.18;6.78;;;;;;;15.27;100.00;63575.59;5087884;28;20200;-77
2023/10/06 03:45:26;;;;;;;11.02;6.93;;;;;;;15.24;100.00;63575.03;5072098;28;20251;-77
2023/10/06 03:48:08;;;;;;;7.90;7.07;;;;;;;15.15;100.00;63560.56;5081174;28;20419;-77
2023/10/06 03:50:38;;;;;;;13.00;7.65;;;;;;;15.15;100.00;63563.63;5075643;28;20478;-76
2023/10/06 03:53:07;;;;;;;7.40;6.30;;;;;;;15.17;100.00;63565.19;5088212;28;20227;-77
2023/10/06 03:55:39;;;;;;;10.15;6.32;;;;;;;15.14;100.00;63559.50;5076706;28;20227;-75
2023/10/06 03:58:07;;;;;;;8.13;6.45;;;;;;;15.21;100.00;63574.47;5071631;28;20235;-77
2023/10/06 04:00:38;;;;;;;7.78;6.60;;;;;;;15.17;100.00;63563.13;5077843;28;20290;-77
2023/10/06 04:03:07;;;;;;;7.85;5.90;;;;;;;15.12;100.00;63557.44;5087964;28;20192;-76
2023/10/06 04:05:37;;;;;;;7.95;6.38;;;;;;;15.05;100.00;63553.75;5071382;28;20229;-77
2023/10/06 04:08:11;;;;;;;7.40;5.82;;;;;;;14.98;100.00;63543.41;5071986;28;20408;-77
2023/10/06 04:10:40;;;;;;;6.75;4.72;;;;;;;14.93;100.00;63543.84;5070404;28;20363;-77
2023/10/06 04:13:09;;;;;;;6.30;5.43;;;;;;;14.98;100.00;63546.47;5073348;28;20400;-78
2023/10/06 04:15:39;;;;;;;6.18;5.38;;;;;;;14.93;100.00;63538.72;5077980;28;20233;-77
2023/10/06 04:18:10;;;;;;;9.65;5.75;;;;;;;14.91;100.00;63533.56;5079018;28;20260;-77
2023/10/06 04:20:39;;;;;;;8.82;5.93;;;;;;;14.82;100.00;63532.41;5083008;28;20216;-78
2023/10/06 04:23:07;;;;;;;7.38;5.60;;;;;;;14.90;100.00;63538.19;5077281;28;20212;-78
2023/10/06 04:25:37;;;;;;;8.90;5.32;;;;;;;14.91;100.00;63543.81;5069562;28;20225;-76
2023/10/06 04:28:09;;;;;;;8.02;5.72;;;;;;;14.97;100.00;63545.44;5069671;28;20205;-76
2023/10/06 04:30:38;;;;;;;5.95;5.07;;;;;;;14.96;100.00;63544.41;5083117;28;20411;-77
2023/10/06 04:33:08;;;;;;;6.05;4.97;;;;;;;14.91;100.00;63538.69;5078989;28;20207;-77
2023/10/06 04:35:35;;;;;;;7.82;4.60;;;;;;;14.98;100.00;63543.91;5071174;28;20247;-77
2023/10/06 04:38:05;;;;;;;8.75;5.25;;;;;;;14.95;100.00;63545.94;5080845;28;20234;-76
2023/10/06 04:40:33;;;;;;;6.85;4.53;;;;;;;15.01;100.00;63546.53;5076966;28;20244;-77
2023/10/06 04:43:01;;;;;;;5.50;4.93;;;;;;;15.01;100.00;63549.59;5085206;28;20516;-77
2023/10/06 04:45:32;;;;;;;8.40;5.22;;;;;;;15.04;100.00;63552.72;5073023;28;20245;-78
2023/10/06 04:48:02;;;;;;;7.18;5.85;;;;;;;15.09;100.00;63557.41;5070413;28;20383;-78
2023/10/06 04:50:30;;;;;;;5.85;5.35;;;;;;;15.11;100.00;63551.25;5067490;28;20297;-77
2023/10/06 04:52:58;;;;;;;11.15;5.60;;;;;;;15.11;100.00;63558.94;5066597;28;20193;-77
2023/10/06 04:55:25;;;;;;;6.40;5.25;;;;;;;15.04;100.00;63552.72;5067544;28;20281;-76
2023/10/06 04:57:52;;;;;;;5.70;5.03;;;;;;;14.84;100.00;63534.00;5072370;28;20345;-79
2023/10/06 05:00:21;;;;;;;8.43;5.47;;;;;;;14.93;100.00;63538.72;5083855;28;20226;-77
2023/10/06 05:02:50;;;;;;;8.50;5.43;;;;;;;14.93;100.00;63543.31;5078601;28;20327;-77
2023/10/06 05:05:20;;;;;;;10.45;5.88;;;;;;;14.97;100.00;63542.34;5083116;28;20217;-78
2023/10/06 05:07:48;;;;;;;8.82;5.65;;;;;;;14.94;100.00;63539.25;5088071;28;20196;-77
2023/10/06 05:10:20;;;;;;;8.73;6.38;;;;;;;14.94;100.00;63544.38;5073855;28;20237;-78
2023/10/06 05:12:48;;;;;;;9.65;6.63;;;;;;;14.99;100.00;63547.53;5069910;28;20257;-77
2023/10/06 05:15:23;;;;;;;8.23;5.65;;;;;;;15.14;100.00;63567.72;5090280;28;20276;-77
2023/10/06 05:17:55;;;;;;;8.55;6.03;;;;;;;15.16;100.00;63564.16;5071488;28;20227;-78
2023/10/06 05:20:29;;;;;;;7.95;5.82;;;;;;;15.24;100.00;63578.09;5069139;28;20217;-78
2023/10/06 05:22:58;;;;;;;9.52;6.45;;;;;;;15.17;100.00;63565.19;5066843;28;20348;-77
2023/10/06 05:25:29;;;;;;;9.35;6.53;;;;;;;15.18;100.00;63571.88;5069087;28;20214;-77
2023/10/06 05:27:57;;;;;;;11.27;6.72;;;;;;;15.21;100.00;63566.78;5070362;28;20220;-77
2023/10/06 05:30:25;;;;;;;11.60;6.38;;;;;;;15.14;100.00;63564.63;5070496;28;20244;-77
2023/10/06 05:32:57;;;;;;;8.50;6.50;;;;;;;15.31;100.00;63582.81;5090073;28;20228;-79
2023/10/06 05:35:27;;;;;;;11.18;6.45;;;;;;;15.29;100.00;63580.22;5082028;28;20240;-79
2023/10/06 05:37:54;;;;;;;6.80;5.90;;;;;;;15.26;100.00;63572.50;5089292;28;20203;-78
2023/10/06 05:40:22;;;;;;;8.18;5.72;;;;;;;15.35;100.00;63581.31;5089422;28;20212;-80
2023/10/06 05:42:53;;;;;;;7.80;6.55;;;;;;;15.48;100.00;63597.44;5085663;28;20201;-77
2023/10/06 05:45:21;;;;;;;6.20;5.60;;;;;;;15.45;100.00;63591.72;5087388;28;20220;-76
2023/10/06 05:47:50;;;;;;;8.00;6.03;;;;;;;15.59;100.00;63608.84;5090064;28;20195;-78
2023/10/06 05:50:26;;;;;;;9.13;6.03;;;;;;;15.74;100.00;63624.44;5089804;28;20216;-78
2023/10/06 05:52:58;;;;;;;8.90;5.82;;;;;;;15.80;100.00;63628.66;5086267;28;20200;-78
2023/10/06 05:55:30;;;;;;;7.55;5.47;;;;;;;15.83;99.84;63636.38;5088644;28;20267;-77
2023/10/06 05:58:00;;;;;;;6.88;5.68;;;;;;;15.80;99.12;63636.34;5088378;28;20503;-78
2023/10/06 06:00:29;;;;;;;6.25;5.43;;;;;;;15.41;100.00;63590.16;5084630;28;20284;-77
2023/10/06 06:02:58;;;;;;;7.82;6.18;;;;;;;15.48;100.00;63600.00;5070046;28;20197;-77
2023/10/06 06:05:29;;;;;;;8.88;6.07;;;;;;;15.56;100.00;63603.19;5067617;28;20263;-76
2023/10/06 06:07:59;;;;;;;7.55;5.82;;;;;;;15.58;100.00;63616.03;5066290;28;20250;-77
2023/10/06 06:10:28;;;;;;;9.95;6.13;;;;;;;15.55;100.00;63609.84;5067408;28;20282;-77
2023/10/06 06:12:56;;;;;;;11.82;6.10;;;;;;;15.75;100.00;63628.59;5080115;28;20192;-77
2023/10/06 06:15:26;;;;;;;6.65;5.63;;;;;;;15.79;99.34;63627.09;5079785;28;20260;-76
2023/10/06 06:17:53;;;;;;;7.07;6.38;;;;;;;15.98;98.24;63644.25;5075093;28;20314;-79
2023/10/06 06:20:22;;;;;;;11.05;5.78;;;;;;;16.20;96.54;63672.31;5078889;28;20224;-78
2023/10/06 06:22:53;;;;;;;11.82;6.70;;;;;;;16.25;95.39;63676.97;5070787;28;20551;-77
2023/10/06 06:25:22;;;;;;;8.38;5.93;;;;;;;16.41;95.09;63693.63;5067284;28;20298;-79
2023/10/06 06:27:54;;;;;;;8.18;5.78;;;;;;;16.52;94.25;63708.16;5066885;28;20181;-78
2023/10/06 06:30:24;;;;;;;12.40;6.07;;;;;;;16.68;93.10;63724.81;5067123;28;20582;-78
2023/10/06 06:32:53;;;;;;;6.28;5.65;;;;;;;16.76;91.71;63733.13;5067558;28;20208;-78
2023/10/06 06:35:21;;;;;;;7.35;6.28;;;;;;;16.55;92.86;63706.13;5067000;28;20242;-77
2023/10/06 06:37:51;;;;;;;10.07;6.18;;;;;;;16.37;93.92;63689.44;5067700;28;20197;-76
2023/10/06 06:40:19;;;;;;;8.02;5.50;;;;;;;16.28;94.95;63677.50;5065948;28;20216;-78
2023/10/06 06:42:51;;;;;;;10.10;5.75;;;;;;;16.37;95.25;63689.44;5066437;28;20196;-76
2023/10/06 06:45:18;;;;;;;11.90;6.18;;;;;;;16.39;95.82;63692.06;5080475;28;20345;-77
2023/10/06 06:47:46;;;;;;;7.18;6.28;;;;;;;16.72;92.68;63726.41;5086185;28;20223;-78
2023/10/06 06:50:15;;;;;;;6.60;5.55;;;;;;;16.91;90.96;63743.09;5072886;28;20259;-78
2023/10/06 06:52:42;;;;;;;8.57;5.45;;;;;;;16.78;90.16;63730.09;5066765;28;20224;-77
2023/10/06 06:55:13;;;;;;;9.70;4.75;;;;;;;16.48;93.77;63700.94;5066384;28;20541;-76
2023/10/06 06:57:45;;;;;;;11.32;5.85;;;;;;;16.44;94.31;63699.84;5066440;28;20264;-76
2023/10/06 07:00:17;;;;;;;7.45;6.03;;;;;;;16.55;94.17;63710.78;5065619;28;20410;-79
2023/10/06 07:02:45;;;;;;;13.75;6.10;;;;;;;16.48;94.74;63700.94;5066503;28;20247;-77
2023/10/06 07:05:14;;;;;;;10.68;6.75;;;;;;;16.47;95.22;63702.97;5066803;28;20243;-77
2023/10/06 07:07:43;;;;;;;6.45;5.85;;;;;;;16.42;95.87;63692.09;5065404;28;20209;-76
2023/10/06 07:10:13;;;;;;;6.78;6.15;;;;;;;16.48;95.79;63700.94;5065714;28;20220;-78
2023/10/06 07:12:41;;;;;;;7.93;6.50;;;;;;;16.77;94.53;63729.06;5068187;28;20229;-78
2023/10/06 07:15:14;;;;;;;9.05;5.97;;;;;;;16.76;92.75;63728.00;5067857;28;20221;-77
2023/10/06 07:17:45;;;;;;;9.15;5.80;;;;;;;16.62;93.34;63716.00;5067698;28;20207;-78
2023/10/06 07:20:16;;;;;;;11.80;6.35;;;;;;;16.38;96.22;63691.00;5067550;28;20236;-77
2023/10/06 07:22:47;;;;;;;8.75;6.57;;;;;;;16.77;94.55;63731.63;5066022;28;20386;-76
2023/10/06 07:25:16;;;;;;;14.05;7.45;;;;;;;16.84;92.53;63738.88;5086139;28;20230;-77
2023/10/06 07:27:44;;;;;;;10.43;6.03;;;;;;;17.20;91.23;63778.94;5089399;28;20431;-79
2023/10/06 07:30:14;;;;;;;8.88;5.53;;;;;;;17.59;87.87;63813.38;5091081;28;20461;-77
2023/10/06 07:32:44;;;;;;;8.20;6.10;;;;;;;17.92;84.82;63848.25;5091719;28;20416;-79
2023/10/06 07:35:13;;;;;;;7.63;6.13;;;;;;;17.81;83.89;63838.88;5081964;28;20225;-78
2023/10/06 07:37:43;;;;;;;6.88;5.95;;;;;;;17.70;85.48;63824.81;5069843;28;20216;-77
2023/10/06 07:40:14;;;;;;;10.77;5.78;;;;;;;17.77;83.32;63832.66;5073638;28;20217;-78
2023/10/06 07:42:43;;;;;;;11.38;5.95;;;;;;;17.52;86.08;63808.66;5068627;28;20203;-78
2023/10/06 07:45:11;;;;;;;8.52;6.03;;;;;;;17.63;83.74;63825.78;5080800;28;20259;-77
2023/10/06 07:47:40;;;;;;;6.75;6.05;;;;;;;17.49;85.08;63805.53;5073027;28;20197;-78
2023/10/06 07:50:12;;;;;;;6.72;6.13;;;;;;;17.70;84.05;63829.97;5074482;28;20291;-77
2023/10/06 07:52:41;;;;;;;7.10;6.40;;;;;;;18.11;81.02;63867.53;5076286;28;20267;-79
2023/10/06 07:55:09;;;;;;;10.85;6.43;;;;;;;18.41;77.67;63901.91;5077020;28;20215;-77
2023/10/06 07:57:41;;;;;;;7.60;6.60;;;;;;;18.60;76.91;63918.59;5073786;28;20216;-78
2023/10/06 08:00:10;;;;;;;8.38;5.85;;;;;;;18.22;78.57;63882.06;5079278;28;20220;-79
2023/10/06 08:02:39;;;;;;;16.98;6.97;;;;;;;18.09;79.30;63868.53;5075894;28;20192;-77
2023/10/06 08:05:11;;;;;;;13.40;7.47;;;;;;;18.06;80.13;63865.41;5075453;28;20270;-78
2023/10/06 08:07:40;;;;;;;11.82;6.63;;;;;;;18.35;78.07;63892.53;5078686;28;20193;-79
2023/10/06 08:10:13;;;;;;;10.55;7.15;;;;;;;18.44;76.84;63901.94;5073119;28;20559;-79
2023/10/06 08:12:42;;;;;;;10.77;7.25;;;;;;;18.71;74.48;63932.13;5085267;28;20228;-78
2023/10/06 08:15:11;;;;;;;12.00;6.05;;;;;;;18.21;77.51;63877.94;5068887;28;20292;-77
2023/10/06 08:17:38;;;;;;;8.45;7.13;;;;;;;17.92;78.16;63853.41;5074796;28;20497;-78
2023/10/06 08:20:06;;;;;;;8.73;6.72;;;;;;;18.18;77.95;63877.94;5079112;28;20221;-78
2023/10/06 08:22:35;;;;;;;5.35;4.85;;;;;;;17.92;78.21;63852.88;5080819;28;20271;-76
2023/10/06 08:25:05;;;;;;;10.00;6.60;;;;;;;17.62;80.58;63821.66;5069521;28;20282;-77
2023/10/06 08:27:33;;;;;;;9.45;7.47;;;;;;;17.52;82.11;63811.22;5075372;28;20219;-79
2023/10/06 08:30:00;;;;;;;8.43;7.00;;;;;;;17.77;80.03;63840.38;5072968;28;20244;-77
2023/10/06 08:32:27;;;;;;;8.50;6.43;;;;;;;17.77;79.87;63832.13;5082900;28;20227;-79
2023/10/06 08:34:55;;;;;;;12.38;6.50;;;;;;;18.29;76.93;63886.28;5073618;28;20216;-78
2023/10/06 08:37:22;;;;;;;10.25;6.65;;;;;;;18.34;75.96;63894.56;5078271;28;20232;-79
2023/10/06 08:39:50;;;;;;;7.50;6.75;;;;;;;18.71;72.28;63932.13;5074680;28;20224;-78
2023/10/06 08:42:21;;;;;;;12.18;7.25;;;;;;;18.97;70.16;63962.31;5078987;28;20230;-79
2023/10/06 08:44:48;;;;;;;8.80;7.20;;;;;;;19.17;69.05;63978.00;5076807;28;20243;-81
2023/10/06 08:47:16;;;;;;;10.00;5.78;;;;;;;18.38;71.18;63898.75;5082628;28;20251;-78
2023/10/06 08:49:46;;;;;;;9.30;6.70;;;;;;;18.35;72.82;63898.22;5079667;28;20227;-78
2023/10/06 08:52:17;;;;;;;7.10;6.10;;;;;;;18.57;72.50;63920.13;5076095;28;20253;-78
2023/10/06 08:54:47;;;;;;;10.18;6.95;;;;;;;18.73;70.72;63931.63;5072600;28;20457;-78
2023/10/06 08:57:17;;;;;;;8.75;7.20;;;;;;;18.51;71.75;63909.22;5074927;28;20219;-79
2023/10/06 08:59:44;;;;;;;11.10;6.65;;;;;;;18.56;71.56;63914.44;5077712;28;20240;-77
2023/10/06 09:02:12;;;;;;;12.15;10.27;;;;;;;18.66;71.97;63924.84;5079677;28;20192;-79
2023/10/06 09:04:39;;;;;;;8.88;7.07;;;;;;;18.58;70.60;63916.00;5073604;28;20224;-79
2023/10/06 09:07:12;;;;;;;8.55;7.07;;;;;;;18.44;72.63;63907.09;5079324;28;20199;-79
2023/10/06 09:09:40;;;;;;;9.82;7.20;;;;;;;18.37;74.00;63895.16;5076597;28;20223;-78
2023/10/06 09:12:09;;;;;;;10.00;8.30;;;;;;;18.58;70.87;63923.72;5078648;28;20242;-78
2023/10/06 09:14:52;;;;;;;7.43;6.70;;;;;;;18.91;69.28;63953.50;5077249;28;20243;-78
2023/10/06 09:17:30;;;;;;;13.70;9.68;;;;;;;19.09;67.75;63974.84;5069869;28;20207;-79
2023/10/06 09:19:58;;;;;;;7.75;6.85;;;;;;;19.08;67.26;63971.22;5074409;28;20512;-78
2023/10/06 09:22:29;;;;;;;19.23;12.32;;;;;;;19.38;66.42;64004.56;5078290;28;20200;-77
2023/10/06 09:25:04;;;;;;;26.75;13.02;;;;;;;19.70;64.22;64032.25;5074089;28;20228;-78
2023/10/06 09:27:37;;;;;;;23.40;16.80;;;;;;;19.79;63.60;64044.75;5076465;28;20207;-78
2023/10/06 09:30:07;;;;;;;16.70;8.50;;;;;;;19.59;63.59;64023.88;5076043;28;20223;-79
2023/10/06 09:32:35;;;;;;;9.95;8.48;;;;;;;19.04;64.99;63966.50;5077402;28;20740;-79
2023/10/06 09:35:19;;;;;;;10.98;7.20;;;;;;;19.04;66.24;63967.03;5075597;28;20213;-79
2023/10/06 09:37:46;;;;;;;12.20;7.82;;;;;;;18.96;67.01;63958.72;5074521;28;20218;-79
2023/10/06 09:40:20;;;;;;;9.52;7.65;;;;;;;19.41;63.80;64005.63;5077037;28;20229;-80
2023/10/06 09:42:49;;;;;;;13.55;7.70;;;;;;;19.41;64.92;64008.22;5077418;28;20260;-79
2023/10/06 09:45:21;;;;;;;7.35;6.65;;;;;;;19.51;63.64;64018.13;5076772;28;20335;-77
2023/10/06 09:47:51;;;;;;;10.32;7.57;;;;;;;19.43;64.58;64005.13;5076509;28;20204;-78
2023/10/06 09:50:22;;;;;;;7.50;6.75;;;;;;;19.44;63.50;64016.00;5075230;28;20213;-77
2023/10/06 09:52:52;;;;;;;7.78;7.13;;;;;;;19.03;66.21;63968.59;5074176;28;20295;-80
2023/10/06 09:55:22;;;;;;;8.65;6.68;;;;;;;18.92;66.65;63957.13;5080021;28;20283;-81
2023/10/06 09:57:51;;;;;;;7.57;6.60;;;;;;;19.03;65.48;63968.06;5077780;28;20197;-78
2023/10/06 10:00:21;;;;;;;13.57;7.43;;;;;;;19.26;64.89;63989.44;5070900;28;20246;-79
2023/10/06 10:02:50;;;;;;;11.73;7.22;;;;;;;19.58;63.24;64028.03;5078917;28;20205;-78
2023/10/06 10:05:20;;;;;;;7.80;6.03;;;;;;;19.32;63.59;63993.69;5077731;28;20295;-78
2023/10/06 10:07:49;;;;;;;8.85;6.63;;;;;;;19.29;62.76;63992.59;5070424;28;20187;-78
2023/10/06 10:10:22;;;;;;;13.05;6.85;;;;;;;19.10;64.63;63972.78;5077596;28;20257;-79
2023/10/06 10:13:21;;;;;;;12.93;6.90;;;;;;;18.95;65.00;63959.72;5077804;28;20224;-78
2023/10/06 10:16:03;;;;;;;10.80;7.28;;;;;;;19.29;64.44;63990.00;5078974;28;20223;-78
2023/10/06 10:18:36;;;;;;;7.88;7.07;;;;;;;19.52;61.33;64022.28;5077250;28;20898;-80
2023/10/06 10:21:05;;;;;;;8.77;6.40;;;;;;;19.85;59.42;64047.91;5075589;28;20213;-79
2023/10/06 10:23:32;;;;;;;7.85;7.10;;;;;;;20.18;58.86;64084.94;5078158;28;20208;-81
2023/10/06 10:26:13;;;;;;;9.95;7.22;;;;;;;19.68;59.99;64032.75;5072968;28;20227;-77
2023/10/06 10:28:40;;;;;;;8.82;6.43;;;;;;;19.39;61.19;64000.97;5070666;28;20411;-79
2023/10/06 10:31:16;;;;;;;9.38;6.93;;;;;;;19.77;59.25;64047.31;5075960;28;20288;-79
2023/10/06 10:33:48;;;;;;;7.18;6.45;;;;;;;20.13;58.19;64080.22;5077784;28;20228;-79
2023/10/06 10:36:22;;;;;;;7.15;6.45;;;;;;;19.99;59.39;64059.91;5080291;28;20224;-79
2023/10/06 10:39:07;;;;;;;10.77;6.65;;;;;;;20.29;55.68;64096.94;5073655;28;20200;-78
2023/10/06 10:41:38;;;;;;;9.27;6.57;;;;;;;20.43;55.57;64114.13;5075142;28;20204;-80
2023/10/06 10:44:07;;;;;;;11.10;6.70;;;;;;;20.70;55.63;64141.81;5072249;28;20203;-80
2023/10/06 10:46:44;;;;;;;7.38;6.65;;;;;;;20.86;53.98;64158.50;5077320;28;20212;-80
2023/10/06 10:49:13;;;;;;;13.52;7.53;;;;;;;20.89;53.12;64161.13;5079380;28;20227;-80
2023/10/06 10:51:53;;;;;;;8.73;6.57;;;;;;;20.77;53.39;64146.53;5071835;28;20192;-79
2023/10/06 10:54:23;;;;;;;11.98;6.78;;;;;;;20.33;55.12;64100.59;5078326;28;20216;-78
2023/10/06 10:57:02;;;;;;;9.40;6.13;;;;;;;20.54;54.55;64125.09;5079739;28;20216;-80
2023/10/06 11:00:11;;;;;;;8.98;5.55;;;;;;;20.10;53.99;64079.69;5073360;28;20224;-80
2023/10/06 11:02:43;;;;;;;8.77;6.13;;;;;;;20.30;53.58;64094.88;5079923;28;20197;-80
2023/10/06 11:05:11;;;;;;;7.40;5.68;;;;;;;20.38;52.68;64108.41;5075924;28;20217;-80
2023/10/06 11:07:39;;;;;;;8.68;5.60;;;;;;;20.49;52.45;64119.88;5082410;28;20204;-78
2023/10/06 11:10:08;;;;;;;6.57;5.53;;;;;;;20.31;50.01;64098.50;5075991;28;20216;-80
2023/10/06 11:12:35;;;;;;;9.13;6.47;;;;;;;20.43;50.41;64113.63;5073551;28;20235;-80
2023/10/06 11:15:13;;;;;;;10.18;5.63;;;;;;;20.56;49.67;64127.19;5072428;28;20352;-80
2023/10/06 11:17:44;;;;;;;9.48;5.07;;;;;;;20.58;47.89;64129.28;5083141;28;20196;-81
2023/10/06 11:20:21;;;;;;;7.63;4.55;;;;;;;20.65;48.17;64137.13;5082639;28;20231;-80
2023/10/06 11:22:57;;;;;;;6.15;4.75;;;;;;;20.64;48.05;64130.34;5079956;28;20214;-79
2023/10/06 11:25:28;;;;;;;5.53;4.80;;;;;;;20.65;46.52;64136.59;5077784;28;20231;-77
2023/10/06 11:28:03;;;;;;;4.97;4.47;;;;;;;20.57;47.42;64128.25;5074101;28;20569;-81
2023/10/06 11:30:32;;;;;;;6.72;5.28;;;;;;;20.77;47.06;64148.59;5074396;28;20433;-78
2023/10/06 11:33:03;;;;;;;11.85;8.63;;;;;;;20.67;47.33;64141.78;5069838;28;20279;-79
2023/10/06 11:35:30;;;;;;;6.80;5.60;;;;;;;21.06;45.46;64174.22;5073041;28;20217;-80
2023/10/06 11:37:59;;;;;;;7.38;4.90;;;;;;;21.20;43.20;64190.91;5072527;28;20256;-78
2023/10/06 11:40:30;;;;;;;3.83;3.53;;;;;;;21.35;41.72;64209.16;5072047;28;20221;-80
2023/10/06 11:43:09;;;;;;;6.80;4.07;;;;;;;21.47;41.52;64221.69;5076757;28;20188;-81